sensor_id;sensor_type;location;lat;lon;timestamp;temperature;humidity
11599;DHT22;5855;48.840;9.188;2023-08-17T00:00:36;20.20;99.90
11599;DHT22;5855;48.840;9.188;2023-08-17T00:03:04;20.20;99.90
11599;DHT22;5855;48.840;9.188;2023-08-17T00:05:30;20.20;99.90
11599;DHT22;5855;48.840;9.188;2023-08-17T00:08:03;20.20;99.90
11599;DHT22;5855;48.840;9.188;2023-08-17T00:10:30;20.20;99.90
11599;DHT22;5855;48.840;9.188;2023-08-17T00:12:58;20.20;99.90
11599;DHT22;5855;48.840;9.188;2023-08-17T00:15:24;20.30;99.90
11599;DHT22;5855;48.840;9.188;2023-08-17T00:17:51;20.30;99.90
11599;DHT22;5855;48.840;9.188;2023-08-17T00:20:18;20.30;99.90
11599;DHT22;5855;48.840;9.188;2023-08-17T00:22:45;20.30;99.90
11599;DHT22;5855;48.840;9.188;2023-08-17T00:25:13;20.30;99.90
11599;DHT22;5855;48.840;9.188;2023-08-17T00:27:40;20.30;99.90
11599;DHT22;5855;48.840;9.188;2023-08-17T00:30:08;20.30;99.90
11599;DHT22;5855;48.840;9.188;2023-08-17T00:32:35;20.30;99.90
11599;DHT22;5855;48.840;9.188;2023-08-17T00:35:02;20.20;99.90
11599;DHT22;5855;48.840;9.188;2023-08-17T00:37:29;20.20;99.90
11599;DHT22;5855;48.840;9.188;2023-08-17T00:39:56;20.10;99.90
11599;DHT22;5855;48.840;9.188;2023-08-17T00:42:24;20.10;99.90
11599;DHT22;5855;48.840;9.188;2023-08-17T00:44:51;20.10;99.90
11599;DHT22;5855;48.840;9.188;2023-08-17T00:47:18;20.10;99.90
11599;DHT22;5855;48.840;9.188;2023-08-17T00:49:45;20.10;99.90
11599;DHT22;5855;48.840;9.188;2023-08-17T00:52:12;20.10;99.90
11599;DHT22;5855;48.840;9.188;2023-08-17T00:54:39;20.10;99.90
11599;DHT22;5855;48.840;9.188;2023-08-17T00:57:05;20.10;99.90
11599;DHT22;5855;48.840;9.188;2023-08-17T00:59:35;20.10;99.90
11599;DHT22;5855;48.840;9.188;2023-08-17T01:02:03;20.10;99.90
11599;DHT22;5855;48.840;9.188;2023-08-17T01:04:30;20.00;99.90
11599;DHT22;5855;48.840;9.188;2023-08-17T01:06:58;20.10;99.90
11599;DHT22;5855;48.840;9.188;2023-08-17T01:09:24;20.10;99.90
11599;DHT22;5855;48.840;9.188;2023-08-17T01:11:56;20.20;99.90
11599;DHT22;5855;48.840;9.188;2023-08-17T01:14:29;20.20;99.90
11599;DHT22;5855;48.840;9.188;2023-08-17T01:17:03;20.20;99.90
11599;DHT22;5855;48.840;9.188;2023-08-17T01:19:33;20.30;99.90
11599;DHT22;5855;48.840;9.188;2023-08-17T01:22:05;20.30;99.90
11599;DHT22;5855;48.840;9.188;2023-08-17T01:24:36;20.30;99.90
11599;DHT22;5855;48.840;9.188;2023-08-17T01:27:03;20.30;99.90
11599;DHT22;5855;48.840;9.188;2023-08-17T01:29:29;20.40;99.90
11599;DHT22;5855;48.840;9.188;2023-08-17T01:32:03;20.40;99.90
11599;DHT22;5855;48.840;9.188;2023-08-17T01:34:42;20.40;99.90
11599;DHT22;5855;48.840;9.188;2023-08-17T01:37:11;20.40;99.90
11599;DHT22;5855;48.840;9.188;2023-08-17T01:39:44;20.40;99.90
11599;DHT22;5855;48.840;9.188;2023-08-17T01:42:12;20.40;99.90
11599;DHT22;5855;48.840;9.188;2023-08-17T01:44:39;20.40;99.90
11599;DHT22;5855;48.840;9.188;2023-08-17T01:47:06;20.50;99.90
11599;DHT22;5855;48.840;9.188;2023-08-17T01:49:33;20.50;99.90
11599;DHT22;5855;48.840;9.188;2023-08-17T01:52:00;20.50;99.90
11599;DHT22;5855;48.840;9.188;2023-08-17T01:54:28;20.50;99.90
11599;DHT22;5855;48.840;9.188;2023-08-17T01:56:56;20.50;99.90
11599;DHT22;5855;48.840;9.188;2023-08-17T01:59:23;20.50;99.90
11599;DHT22;5855;48.840;9.188;2023-08-17T02:01:49;20.50;99.90
11599;DHT22;5855;48.840;9.188;2023-08-17T02:04:16;20.50;99.90
11599;DHT22;5855;48.840;9.188;2023-08-17T02:06:43;20.50;99.90
11599;DHT22;5855;48.840;9.188;2023-08-17T02:09:10;20.60;99.90
11599;DHT22;5855;48.840;9.188;2023-08-17T02:11:37;20.60;99.90
11599;DHT22;5855;48.840;9.188;2023-08-17T02:14:05;20.70;99.90
11599;DHT22;5855;48.840;9.188;2023-08-17T02:16:32;20.70;99.90
11599;DHT22;5855;48.840;9.188;2023-08-17T02:18:59;20.80;99.90
11599;DHT22;5855;48.840;9.188;2023-08-17T02:21:26;20.80;99.90
11599;DHT22;5855;48.840;9.188;2023-08-17T02:23:53;20.70;99.90
11599;DHT22;5855;48.840;9.188;2023-08-17T02:26:20;20.60;99.90
11599;DHT22;5855;48.840;9.188;2023-08-17T02:28:46;20.50;99.90
11599;DHT22;5855;48.840;9.188;2023-08-17T02:31:15;20.50;99.90
11599;DHT22;5855;48.840;9.188;2023-08-17T02:33:41;20.50;99.90
11599;DHT22;5855;48.840;9.188;2023-08-17T02:36:08;20.50;99.90
11599;DHT22;5855;48.840;9.188;2023-08-17T02:38:35;20.50;99.90
11599;DHT22;5855;48.840;9.188;2023-08-17T02:41:02;20.50;99.90
11599;DHT22;5855;48.840;9.188;2023-08-17T02:43:29;20.50;99.90
11599;DHT22;5855;48.840;9.188;2023-08-17T02:45:55;20.60;99.90
11599;DHT22;5855;48.840;9.188;2023-08-17T02:48:23;20.60;99.90
11599;DHT22;5855;48.840;9.188;2023-08-17T02:50:50;20.60;99.90
11599;DHT22;5855;48.840;9.188;2023-08-17T02:53:17;20.60;99.90
11599;DHT22;5855;48.840;9.188;2023-08-17T02:55:44;20.50;99.90
11599;DHT22;5855;48.840;9.188;2023-08-17T02:58:11;20.60;99.90
11599;DHT22;5855;48.840;9.188;2023-08-17T03:00:37;20.50;99.90
11599;DHT22;5855;48.840;9.188;2023-08-17T03:03:04;20.60;99.90
11599;DHT22;5855;48.840;9.188;2023-08-17T03:05:33;20.60;99.90
11599;DHT22;5855;48.840;9.188;2023-08-17T03:08:00;20.60;99.90
11599;DHT22;5855;48.840;9.188;2023-08-17T03:10:27;20.60;99.90
11599;DHT22;5855;48.840;9.188;2023-08-17T03:12:53;20.60;99.90
11599;DHT22;5855;48.840;9.188;2023-08-17T03:15:20;20.60;99.90
11599;DHT22;5855;48.840;9.188;2023-08-17T03:17:47;20.60;99.90
11599;DHT22;5855;48.840;9.188;2023-08-17T03:20:14;20.60;99.90
11599;DHT22;5855;48.840;9.188;2023-08-17T03:22:42;20.60;99.90
11599;DHT22;5855;48.840;9.188;2023-08-17T03:25:09;20.60;99.90
11599;DHT22;5855;48.840;9.188;2023-08-17T03:27:36;20.60;99.90
11599;DHT22;5855;48.840;9.188;2023-08-17T03:30:04;20.60;99.90
11599;DHT22;5855;48.840;9.188;2023-08-17T03:32:31;20.60;99.90
11599;DHT22;5855;48.840;9.188;2023-08-17T03:34:58;20.60;99.90
11599;DHT22;5855;48.840;9.188;2023-08-17T03:37:24;20.60;99.90
11599;DHT22;5855;48.840;9.188;2023-08-17T03:39:53;20.60;99.90
11599;DHT22;5855;48.840;9.188;2023-08-17T03:42:19;20.60;99.90
11599;DHT22;5855;48.840;9.188;2023-08-17T03:44:46;20.60;99.90
11599;DHT22;5855;48.840;9.188;2023-08-17T03:47:13;20.60;99.90
11599;DHT22;5855;48.840;9.188;2023-08-17T03:49:40;20.60;99.90
11599;DHT22;5855;48.840;9.188;2023-08-17T03:52:07;20.60;99.90
11599;DHT22;5855;48.840;9.188;2023-08-17T03:54:33;20.60;99.90
11599;DHT22;5855;48.840;9.188;2023-08-17T03:57:02;20.60;99.90
11599;DHT22;5855;48.840;9.188;2023-08-17T03:59:28;20.60;99.90
11599;DHT22;5855;48.840;9.188;2023-08-17T04:01:55;20.60;99.90
11599;DHT22;5855;48.840;9.188;2023-08-17T04:04:22;20.60;99.90
11599;DHT22;5855;48.840;9.188;2023-08-17T04:06:49;20.60;99.90
11599;DHT22;5855;48.840;9.188;2023-08-17T04:09:15;20.60;99.90
11599;DHT22;5855;48.840;9.188;2023-08-17T04:11:42;20.60;99.90
11599;DHT22;5855;48.840;9.188;2023-08-17T04:14:10;20.60;99.90
11599;DHT22;5855;48.840;9.188;2023-08-17T04:16:38;20.60;99.90
11599;DHT22;5855;48.840;9.188;2023-08-17T04:19:04;20.60;99.90
11599;DHT22;5855;48.840;9.188;2023-08-17T04:21:31;20.60;99.90
11599;DHT22;5855;48.840;9.188;2023-08-17T04:23:58;20.70;99.90
11599;DHT22;5855;48.840;9.188;2023-08-17T04:26:25;20.70;99.90
11599;DHT22;5855;48.840;9.188;2023-08-17T04:28:51;20.70;99.90
11599;DHT22;5855;48.840;9.188;2023-08-17T04:31:20;20.70;99.90
11599;DHT22;5855;48.840;9.188;2023-08-17T04:33:46;20.70;99.90
11599;DHT22;5855;48.840;9.188;2023-08-17T04:36:13;20.80;99.90
11599;DHT22;5855;48.840;9.188;2023-08-17T04:38:40;20.80;99.90
11599;DHT22;5855;48.840;9.188;2023-08-17T04:41:07;20.80;99.90
11599;DHT22;5855;48.840;9.188;2023-08-17T04:43:34;20.80;99.90
11599;DHT22;5855;48.840;9.188;2023-08-17T04:46:00;20.80;99.90
11599;DHT22;5855;48.840;9.188;2023-08-17T04:48:29;20.80;99.90
11599;DHT22;5855;48.840;9.188;2023-08-17T04:50:55;20.80;99.90
11599;DHT22;5855;48.840;9.188;2023-08-17T04:53:22;20.90;99.90
11599;DHT22;5855;48.840;9.188;2023-08-17T04:55:49;20.90;99.90
11599;DHT22;5855;48.840;9.188;2023-08-17T04:58:16;20.90;99.90
11599;DHT22;5855;48.840;9.188;2023-08-17T05:00:42;20.90;99.90
11599;DHT22;5855;48.840;9.188;2023-08-17T05:03:09;21.00;99.90
11599;DHT22;5855;48.840;9.188;2023-08-17T05:05:37;21.00;99.90
11599;DHT22;5855;48.840;9.188;2023-08-17T05:08:04;21.00;99.90
11599;DHT22;5855;48.840;9.188;2023-08-17T05:10:31;21.00;99.90
11599;DHT22;5855;48.840;9.188;2023-08-17T05:12:58;21.10;99.90
11599;DHT22;5855;48.840;9.188;2023-08-17T05:15:25;21.10;99.90
11599;DHT22;5855;48.840;9.188;2023-08-17T05:17:52;21.10;99.90
11599;DHT22;5855;48.840;9.188;2023-08-17T05:20:19;21.10;99.90
11599;DHT22;5855;48.840;9.188;2023-08-17T05:22:47;21.20;99.90
11599;DHT22;5855;48.840;9.188;2023-08-17T05:25:14;21.20;99.90
11599;DHT22;5855;48.840;9.188;2023-08-17T05:27:41;21.30;99.90
11599;DHT22;5855;48.840;9.188;2023-08-17T05:30:08;21.30;99.90
11599;DHT22;5855;48.840;9.188;2023-08-17T05:32:35;21.40;99.90
11599;DHT22;5855;48.840;9.188;2023-08-17T05:35:02;21.50;99.90
11599;DHT22;5855;48.840;9.188;2023-08-17T05:37:29;21.50;99.90
11599;DHT22;5855;48.840;9.188;2023-08-17T05:39:57;21.50;99.90
11599;DHT22;5855;48.840;9.188;2023-08-17T05:42:24;21.60;99.90
11599;DHT22;5855;48.840;9.188;2023-08-17T05:44:51;21.70;99.90
11599;DHT22;5855;48.840;9.188;2023-08-17T05:47:18;21.70;99.90
11599;DHT22;5855;48.840;9.188;2023-08-17T05:49:45;21.80;99.90
11599;DHT22;5855;48.840;9.188;2023-08-17T05:52:12;21.90;99.90
11599;DHT22;5855;48.840;9.188;2023-08-17T05:54:39;21.90;99.90
11599;DHT22;5855;48.840;9.188;2023-08-17T05:57:07;22.00;99.90
11599;DHT22;5855;48.840;9.188;2023-08-17T05:59:34;22.00;99.90
11599;DHT22;5855;48.840;9.188;2023-08-17T06:02:01;22.10;99.90
11599;DHT22;5855;48.840;9.188;2023-08-17T06:04:28;22.10;99.90
11599;DHT22;5855;48.840;9.188;2023-08-17T06:06:55;22.20;99.90
11599;DHT22;5855;48.840;9.188;2023-08-17T06:09:21;22.20;99.90
11599;DHT22;5855;48.840;9.188;2023-08-17T06:11:48;22.30;99.90
11599;DHT22;5855;48.840;9.188;2023-08-17T06:14:16;22.30;99.90
11599;DHT22;5855;48.840;9.188;2023-08-17T06:16:46;22.40;99.90
11599;DHT22;5855;48.840;9.188;2023-08-17T06:19:13;22.40;99.90
11599;DHT22;5855;48.840;9.188;2023-08-17T06:21:40;22.50;99.90
11599;DHT22;5855;48.840;9.188;2023-08-17T06:24:06;22.50;99.90
11599;DHT22;5855;48.840;9.188;2023-08-17T06:26:33;22.50;99.90
11599;DHT22;5855;48.840;9.188;2023-08-17T06:29:00;22.60;99.90
11599;DHT22;5855;48.840;9.188;2023-08-17T06:31:28;22.70;99.90
11599;DHT22;5855;48.840;9.188;2023-08-17T06:33:56;22.80;99.90
11599;DHT22;5855;48.840;9.188;2023-08-17T06:36:22;22.80;99.90
11599;DHT22;5855;48.840;9.188;2023-08-17T06:38:49;22.90;99.90
11599;DHT22;5855;48.840;9.188;2023-08-17T06:41:16;23.10;99.90
11599;DHT22;5855;48.840;9.188;2023-08-17T06:43:43;23.10;99.90
11599;DHT22;5855;48.840;9.188;2023-08-17T06:46:10;23.10;99.90
11599;DHT22;5855;48.840;9.188;2023-08-17T06:48:38;23.20;99.90
11599;DHT22;5855;48.840;9.188;2023-08-17T06:51:05;23.20;99.90
11599;DHT22;5855;48.840;9.188;2023-08-17T06:53:32;23.20;99.90
11599;DHT22;5855;48.840;9.188;2023-08-17T06:55:59;23.20;99.90
11599;DHT22;5855;48.840;9.188;2023-08-17T06:58:25;23.20;99.90
11599;DHT22;5855;48.840;9.188;2023-08-17T07:00:52;23.30;99.90
11599;DHT22;5855;48.840;9.188;2023-08-17T07:03:19;23.30;99.90
11599;DHT22;5855;48.840;9.188;2023-08-17T07:05:47;23.30;99.90
11599;DHT22;5855;48.840;9.188;2023-08-17T07:08:14;23.40;99.90
11599;DHT22;5855;48.840;9.188;2023-08-17T07:10:42;23.50;99.90
11599;DHT22;5855;48.840;9.188;2023-08-17T07:13:09;23.60;99.90
11599;DHT22;5855;48.840;9.188;2023-08-17T07:15:36;23.50;99.90
11599;DHT22;5855;48.840;9.188;2023-08-17T07:18:03;23.60;99.90
11599;DHT22;5855;48.840;9.188;2023-08-17T07:20:30;23.70;99.90
11599;DHT22;5855;48.840;9.188;2023-08-17T07:22:58;23.90;99.90
11599;DHT22;5855;48.840;9.188;2023-08-17T07:25:25;24.00;99.90
11599;DHT22;5855;48.840;9.188;2023-08-17T07:27:52;24.10;99.90
11599;DHT22;5855;48.840;9.188;2023-08-17T07:30:19;24.10;99.90
11599;DHT22;5855;48.840;9.188;2023-08-17T07:32:46;24.00;99.90
11599;DHT22;5855;48.840;9.188;2023-08-17T07:35:18;23.90;99.90
11599;DHT22;5855;48.840;9.188;2023-08-17T07:37:45;24.10;99.90
11599;DHT22;5855;48.840;9.188;2023-08-17T07:40:13;24.30;99.90
11599;DHT22;5855;48.840;9.188;2023-08-17T07:42:40;24.60;99.90
11599;DHT22;5855;48.840;9.188;2023-08-17T07:45:07;24.60;99.90
11599;DHT22;5855;48.840;9.188;2023-08-17T07:47:35;24.70;99.90
11599;DHT22;5855;48.840;9.188;2023-08-17T07:50:03;24.60;99.90
11599;DHT22;5855;48.840;9.188;2023-08-17T07:52:30;24.60;99.90
11599;DHT22;5855;48.840;9.188;2023-08-17T07:54:57;24.60;99.90
11599;DHT22;5855;48.840;9.188;2023-08-17T07:57:25;24.50;99.90
11599;DHT22;5855;48.840;9.188;2023-08-17T07:59:52;24.30;99.90
11599;DHT22;5855;48.840;9.188;2023-08-17T08:02:19;24.40;99.90
11599;DHT22;5855;48.840;9.188;2023-08-17T08:04:46;24.60;99.90
11599;DHT22;5855;48.840;9.188;2023-08-17T08:07:13;24.70;99.90
11599;DHT22;5855;48.840;9.188;2023-08-17T08:09:39;24.80;99.90
11599;DHT22;5855;48.840;9.188;2023-08-17T08:12:06;24.80;99.90
11599;DHT22;5855;48.840;9.188;2023-08-17T08:14:35;24.70;99.90
11599;DHT22;5855;48.840;9.188;2023-08-17T08:17:02;24.90;99.90
11599;DHT22;5855;48.840;9.188;2023-08-17T08:19:29;25.10;99.90
11599;DHT22;5855;48.840;9.188;2023-08-17T08:21:55;25.20;99.90
11599;DHT22;5855;48.840;9.188;2023-08-17T08:24:22;25.40;99.90
11599;DHT22;5855;48.840;9.188;2023-08-17T08:26:49;25.30;99.90
11599;DHT22;5855;48.840;9.188;2023-08-17T08:29:18;25.60;99.90
11599;DHT22;5855;48.840;9.188;2023-08-17T08:31:46;25.50;99.90
11599;DHT22;5855;48.840;9.188;2023-08-17T08:34:13;25.40;99.90
11599;DHT22;5855;48.840;9.188;2023-08-17T08:36:40;25.30;99.90
11599;DHT22;5855;48.840;9.188;2023-08-17T08:39:06;25.50;99.90
11599;DHT22;5855;48.840;9.188;2023-08-17T08:41:34;25.60;99.90
11599;DHT22;5855;48.840;9.188;2023-08-17T08:44:10;25.50;99.90
11599;DHT22;5855;48.840;9.188;2023-08-17T08:46:40;25.60;99.90
11599;DHT22;5855;48.840;9.188;2023-08-17T08:49:11;25.70;99.90
11599;DHT22;5855;48.840;9.188;2023-08-17T08:51:42;25.90;99.90
11599;DHT22;5855;48.840;9.188;2023-08-17T08:54:13;26.10;99.90
11599;DHT22;5855;48.840;9.188;2023-08-17T08:56:43;26.30;99.90
11599;DHT22;5855;48.840;9.188;2023-08-17T08:59:11;26.50;99.90
11599;DHT22;5855;48.840;9.188;2023-08-17T09:01:38;26.60;99.90
11599;DHT22;5855;48.840;9.188;2023-08-17T09:04:05;26.80;99.90
11599;DHT22;5855;48.840;9.188;2023-08-17T09:06:34;27.00;99.90
11599;DHT22;5855;48.840;9.188;2023-08-17T09:09:01;27.10;99.90
11599;DHT22;5855;48.840;9.188;2023-08-17T09:11:29;27.10;99.90
11599;DHT22;5855;48.840;9.188;2023-08-17T09:13:56;27.10;99.90
11599;DHT22;5855;48.840;9.188;2023-08-17T09:16:23;27.40;99.90
11599;DHT22;5855;48.840;9.188;2023-08-17T09:18:52;27.50;99.90
11599;DHT22;5855;48.840;9.188;2023-08-17T09:21:22;27.40;99.90
11599;DHT22;5855;48.840;9.188;2023-08-17T09:23:54;27.30;99.90
11599;DHT22;5855;48.840;9.188;2023-08-17T09:26:22;27.50;99.90
11599;DHT22;5855;48.840;9.188;2023-08-17T09:28:49;27.50;99.90
11599;DHT22;5855;48.840;9.188;2023-08-17T09:31:19;27.70;99.90
11599;DHT22;5855;48.840;9.188;2023-08-17T09:33:49;27.90;99.90
11599;DHT22;5855;48.840;9.188;2023-08-17T09:36:20;28.10;99.90
11599;DHT22;5855;48.840;9.188;2023-08-17T09:38:48;28.40;99.90
11599;DHT22;5855;48.840;9.188;2023-08-17T09:41:17;28.60;99.90
11599;DHT22;5855;48.840;9.188;2023-08-17T09:43:45;28.90;99.90
11599;DHT22;5855;48.840;9.188;2023-08-17T09:46:12;29.00;99.90
11599;DHT22;5855;48.840;9.188;2023-08-17T09:48:39;29.00;99.90
11599;DHT22;5855;48.840;9.188;2023-08-17T09:51:06;29.00;99.90
11599;DHT22;5855;48.840;9.188;2023-08-17T09:53:35;29.20;99.90
11599;DHT22;5855;48.840;9.188;2023-08-17T09:56:05;29.60;99.90
11599;DHT22;5855;48.840;9.188;2023-08-17T09:58:34;29.80;99.90
11599;DHT22;5855;48.840;9.188;2023-08-17T10:01:04;30.00;99.90
11599;DHT22;5855;48.840;9.188;2023-08-17T10:03:33;30.30;99.90
11599;DHT22;5855;48.840;9.188;2023-08-17T10:06:05;30.20;99.90
11599;DHT22;5855;48.840;9.188;2023-08-17T10:08:35;30.60;99.90
11599;DHT22;5855;48.840;9.188;2023-08-17T10:11:05;30.60;99.90
11599;DHT22;5855;48.840;9.188;2023-08-17T10:13:39;30.80;99.90
11599;DHT22;5855;48.840;9.188;2023-08-17T10:16:16;30.60;99.90
11599;DHT22;5855;48.840;9.188;2023-08-17T10:18:53;30.60;99.90
11599;DHT22;5855;48.840;9.188;2023-08-17T10:21:23;30.40;99.90
11599;DHT22;5855;48.840;9.188;2023-08-17T10:23:54;30.30;99.90
11599;DHT22;5855;48.840;9.188;2023-08-17T10:26:22;30.50;99.90
11599;DHT22;5855;48.840;9.188;2023-08-17T10:28:51;30.50;99.90
11599;DHT22;5855;48.840;9.188;2023-08-17T10:31:19;31.00;99.90
11599;DHT22;5855;48.840;9.188;2023-08-17T10:33:47;31.40;99.90
11599;DHT22;5855;48.840;9.188;2023-08-17T10:36:15;31.70;99.90
11599;DHT22;5855;48.840;9.188;2023-08-17T10:38:42;31.90;99.90
11599;DHT22;5855;48.840;9.188;2023-08-17T10:41:10;31.70;99.90
11599;DHT22;5855;48.840;9.188;2023-08-17T10:43:55;32.20;99.90
11599;DHT22;5855;48.840;9.188;2023-08-17T10:46:32;32.20;99.90
11599;DHT22;5855;48.840;9.188;2023-08-17T10:49:02;32.00;99.90
11599;DHT22;5855;48.840;9.188;2023-08-17T10:51:29;32.30;99.90
11599;DHT22;5855;48.840;9.188;2023-08-17T10:53:58;32.40;99.90
11599;DHT22;5855;48.840;9.188;2023-08-17T10:56:27;32.60;99.90
11599;DHT22;5855;48.840;9.188;2023-08-17T10:58:59;32.80;99.90
11599;DHT22;5855;48.840;9.188;2023-08-17T11:01:33;33.10;99.90
11599;DHT22;5855;48.840;9.188;2023-08-17T11:04:11;33.60;99.90
11599;DHT22;5855;48.840;9.188;2023-08-17T11:06:38;34.20;99.90
11599;DHT22;5855;48.840;9.188;2023-08-17T11:09:07;34.60;99.90
11599;DHT22;5855;48.840;9.188;2023-08-17T11:11:36;34.90;99.90
11599;DHT22;5855;48.840;9.188;2023-08-17T11:14:04;35.20;99.90
11599;DHT22;5855;48.840;9.188;2023-08-17T11:16:34;35.40;99.90
11599;DHT22;5855;48.840;9.188;2023-08-17T11:19:07;35.70;99.80
11599;DHT22;5855;48.840;9.188;2023-08-17T11:21:34;36.00;98.20
11599;DHT22;5855;48.840;9.188;2023-08-17T11:24:04;36.40;97.20
11599;DHT22;5855;48.840;9.188;2023-08-17T11:26:36;36.70;96.80
11599;DHT22;5855;48.840;9.188;2023-08-17T11:29:04;37.20;96.70
11599;DHT22;5855;48.840;9.188;2023-08-17T11:31:39;37.60;95.90
11599;DHT22;5855;48.840;9.188;2023-08-17T11:34:07;37.90;94.80
11599;DHT22;5855;48.840;9.188;2023-08-17T11:36:34;38.10;94.60
11599;DHT22;5855;48.840;9.188;2023-08-17T11:39:01;38.40;94.20
11599;DHT22;5855;48.840;9.188;2023-08-17T11:41:28;39.10;92.20
11599;DHT22;5855;48.840;9.188;2023-08-17T11:43:56;39.80;90.00
11599;DHT22;5855;48.840;9.188;2023-08-17T11:46:25;40.00;89.30
11599;DHT22;5855;48.840;9.188;2023-08-17T11:48:52;40.50;86.50
11599;DHT22;5855;48.840;9.188;2023-08-17T11:51:28;41.30;82.70
11599;DHT22;5855;48.840;9.188;2023-08-17T11:53:58;41.40;79.60
11599;DHT22;5855;48.840;9.188;2023-08-17T11:56:25;41.30;77.40
11599;DHT22;5855;48.840;9.188;2023-08-17T11:58:52;40.70;77.00
11599;DHT22;5855;48.840;9.188;2023-08-17T12:01:19;39.30;81.30
11599;DHT22;5855;48.840;9.188;2023-08-17T12:03:48;38.90;83.10
11599;DHT22;5855;48.840;9.188;2023-08-17T12:06:16;39.50;83.10
11599;DHT22;5855;48.840;9.188;2023-08-17T12:08:44;39.60;80.30
11599;DHT22;5855;48.840;9.188;2023-08-17T12:11:11;39.70;81.40
11599;DHT22;5855;48.840;9.188;2023-08-17T12:13:38;39.00;82.60
11599;DHT22;5855;48.840;9.188;2023-08-17T12:16:05;37.80;85.00
11599;DHT22;5855;48.840;9.188;2023-08-17T12:18:32;37.30;87.50
11599;DHT22;5855;48.840;9.188;2023-08-17T12:21:01;37.10;89.40
11599;DHT22;5855;48.840;9.188;2023-08-17T12:23:28;36.70;89.60
11599;DHT22;5855;48.840;9.188;2023-08-17T12:25:55;36.20;91.40
11599;DHT22;5855;48.840;9.188;2023-08-17T12:28:22;35.70;91.70
11599;DHT22;5855;48.840;9.188;2023-08-17T12:30:57;35.20;93.20
11599;DHT22;5855;48.840;9.188;2023-08-17T12:33:24;34.60;95.10
11599;DHT22;5855;48.840;9.188;2023-08-17T12:35:51;34.40;95.80
11599;DHT22;5855;48.840;9.188;2023-08-17T12:38:21;33.60;97.30
11599;DHT22;5855;48.840;9.188;2023-08-17T12:40:48;32.80;99.00
11599;DHT22;5855;48.840;9.188;2023-08-17T12:43:15;32.40;99.90
11599;DHT22;5855;48.840;9.188;2023-08-17T12:45:41;32.10;99.90
11599;DHT22;5855;48.840;9.188;2023-08-17T12:48:08;31.70;99.90
11599;DHT22;5855;48.840;9.188;2023-08-17T12:50:35;30.80;99.90
11599;DHT22;5855;48.840;9.188;2023-08-17T12:53:02;30.30;99.90
11599;DHT22;5855;48.840;9.188;2023-08-17T12:55:30;30.00;99.90
11599;DHT22;5855;48.840;9.188;2023-08-17T12:57:57;29.60;99.90
11599;DHT22;5855;48.840;9.188;2023-08-17T13:00:24;29.40;99.90
11599;DHT22;5855;48.840;9.188;2023-08-17T13:02:51;29.10;99.90
11599;DHT22;5855;48.840;9.188;2023-08-17T13:05:18;28.90;99.90
11599;DHT22;5855;48.840;9.188;2023-08-17T13:07:44;28.70;99.90
11599;DHT22;5855;48.840;9.188;2023-08-17T13:10:11;28.50;99.90
11599;DHT22;5855;48.840;9.188;2023-08-17T13:12:39;28.00;99.90
11599;DHT22;5855;48.840;9.188;2023-08-17T13:15:07;27.50;99.90
11599;DHT22;5855;48.840;9.188;2023-08-17T13:17:34;27.20;99.90
11599;DHT22;5855;48.840;9.188;2023-08-17T13:20:01;26.80;99.90
11599;DHT22;5855;48.840;9.188;2023-08-17T13:22:29;26.50;99.90
11599;DHT22;5855;48.840;9.188;2023-08-17T13:24:56;26.40;99.90
11599;DHT22;5855;48.840;9.188;2023-08-17T13:27:23;26.20;99.90
11599;DHT22;5855;48.840;9.188;2023-08-17T13:29:51;26.00;99.90
11599;DHT22;5855;48.840;9.188;2023-08-17T13:32:18;26.00;99.90
11599;DHT22;5855;48.840;9.188;2023-08-17T13:34:45;26.00;99.90
11599;DHT22;5855;48.840;9.188;2023-08-17T13:37:12;25.80;99.90
11599;DHT22;5855;48.840;9.188;2023-08-17T13:39:39;25.70;99.90
11599;DHT22;5855;48.840;9.188;2023-08-17T13:42:06;25.60;99.90
11599;DHT22;5855;48.840;9.188;2023-08-17T13:44:32;25.40;99.90
11599;DHT22;5855;48.840;9.188;2023-08-17T13:47:01;25.30;99.90
11599;DHT22;5855;48.840;9.188;2023-08-17T13:49:28;25.10;99.90
11599;DHT22;5855;48.840;9.188;2023-08-17T13:51:54;24.80;99.90
11599;DHT22;5855;48.840;9.188;2023-08-17T13:54:22;24.60;99.90
11599;DHT22;5855;48.840;9.188;2023-08-17T13:56:48;24.60;99.90
11599;DHT22;5855;48.840;9.188;2023-08-17T13:59:15;24.50;99.90
11599;DHT22;5855;48.840;9.188;2023-08-17T14:01:42;24.50;99.90
11599;DHT22;5855;48.840;9.188;2023-08-17T14:04:10;24.40;99.90
11599;DHT22;5855;48.840;9.188;2023-08-17T14:06:38;24.30;99.90
11599;DHT22;5855;48.840;9.188;2023-08-17T14:09:05;24.40;99.90
11599;DHT22;5855;48.840;9.188;2023-08-17T14:11:31;24.50;99.90
11599;DHT22;5855;48.840;9.188;2023-08-17T14:13:58;24.60;99.90
11599;DHT22;5855;48.840;9.188;2023-08-17T14:16:25;24.70;99.90
11599;DHT22;5855;48.840;9.188;2023-08-17T14:18:52;24.90;99.90
11599;DHT22;5855;48.840;9.188;2023-08-17T14:21:20;24.80;99.90
11599;DHT22;5855;48.840;9.188;2023-08-17T14:23:47;24.80;99.90
11599;DHT22;5855;48.840;9.188;2023-08-17T14:26:14;24.70;99.90
11599;DHT22;5855;48.840;9.188;2023-08-17T14:28:40;24.80;99.90
11599;DHT22;5855;48.840;9.188;2023-08-17T14:31:07;24.80;99.90
11599;DHT22;5855;48.840;9.188;2023-08-17T14:33:34;24.80;99.90
11599;DHT22;5855;48.840;9.188;2023-08-17T14:36:01;24.80;99.90
11599;DHT22;5855;48.840;9.188;2023-08-17T14:38:29;24.70;99.90
11599;DHT22;5855;48.840;9.188;2023-08-17T14:40:56;24.80;99.90
11599;DHT22;5855;48.840;9.188;2023-08-17T14:43:23;24.90;99.90
11599;DHT22;5855;48.840;9.188;2023-08-17T14:45:50;24.90;99.90
11599;DHT22;5855;48.840;9.188;2023-08-17T14:48:16;25.10;99.90
11599;DHT22;5855;48.840;9.188;2023-08-17T14:50:43;25.30;99.90
11599;DHT22;5855;48.840;9.188;2023-08-17T14:53:11;25.50;99.90
11599;DHT22;5855;48.840;9.188;2023-08-17T14:55:41;25.60;99.90
11599;DHT22;5855;48.840;9.188;2023-08-17T14:58:08;25.90;99.90
11599;DHT22;5855;48.840;9.188;2023-08-17T15:00:35;26.10;99.90
11599;DHT22;5855;48.840;9.188;2023-08-17T15:03:01;26.30;99.90
11599;DHT22;5855;48.840;9.188;2023-08-17T15:05:28;26.50;99.90
11599;DHT22;5855;48.840;9.188;2023-08-17T15:07:56;26.70;99.90
11599;DHT22;5855;48.840;9.188;2023-08-17T15:10:23;26.90;99.90
11599;DHT22;5855;48.840;9.188;2023-08-17T15:12:51;27.10;99.90
11599;DHT22;5855;48.840;9.188;2023-08-17T15:15:18;27.20;99.90
11599;DHT22;5855;48.840;9.188;2023-08-17T15:17:45;27.30;99.90
11599;DHT22;5855;48.840;9.188;2023-08-17T15:20:12;27.20;99.90
11599;DHT22;5855;48.840;9.188;2023-08-17T15:22:39;27.00;99.90
11599;DHT22;5855;48.840;9.188;2023-08-17T15:25:06;27.00;99.90
11599;DHT22;5855;48.840;9.188;2023-08-17T15:27:33;27.10;99.90
11599;DHT22;5855;48.840;9.188;2023-08-17T15:30:01;27.20;99.90
11599;DHT22;5855;48.840;9.188;2023-08-17T15:32:29;27.30;99.90
11599;DHT22;5855;48.840;9.188;2023-08-17T15:34:56;27.60;99.90
11599;DHT22;5855;48.840;9.188;2023-08-17T15:37:23;27.80;99.90
11599;DHT22;5855;48.840;9.188;2023-08-17T15:39:50;28.00;99.90
11599;DHT22;5855;48.840;9.188;2023-08-17T15:42:17;28.20;99.90
11599;DHT22;5855;48.840;9.188;2023-08-17T15:44:46;28.30;99.90
11599;DHT22;5855;48.840;9.188;2023-08-17T15:47:15;28.30;99.90